Time;durP1;ratioP1;P1;durP2;ratioP2;P2;SDS_P1;SDS_P2;PMS_P1;PMS_P2;Temp;Humidity;BMP_temperature;BMP_pressure;BME280_temperature;BME280_humidity;BME280_pressure;Samples;Min_cycle;Max_cycle;Signal;HPM_P1;HPM_P2
2023/02/10 00:00:13;;;;;;;28.17;13.93;;;;;;;-5.86;100.00;99081.00;5056651;28;20615;-59
2023/02/10 00:02:40;;;;;;;28.73;15.35;;;;;;;-6.12;100.00;99062.53;5057419;28;20043;-57
2023/02/10 00:05:06;;;;;;;32.15;14.98;;;;;;;-6.16;100.00;99064.53;5056695;28;20135;-59
2023/02/10 00:07:33;;;;;;;30.23;14.48;;;;;;;-5.96;100.00;99069.38;5052162;28;20099;-60
2023/02/10 00:09:59;;;;;;;31.58;16.08;;;;;;;-5.96;100.00;99074.66;5057059;28;20044;-58
2023/02/10 00:12:26;;;;;;;33.80;14.70;;;;;;;-5.99;100.00;99075.72;5053544;28;20049;-57
2023/02/10 00:14:52;;;;;;;33.17;15.23;;;;;;;-6.06;100.00;99080.59;5061583;28;20048;-58
2023/02/10 00:17:19;;;;;;;25.98;13.90;;;;;;;-6.04;100.00;99077.84;5057266;28;20051;-59
2023/02/10 00:19:45;;;;;;;31.10;13.98;;;;;;;-5.98;100.00;99081.84;5059035;28;20045;-59
2023/02/10 00:22:12;;;;;;;26.45;13.75;;;;;;;-5.94;100.00;99083.31;5056322;28;20048;-60
2023/02/10 00:24:38;;;;;;;33.00;15.90;;;;;;;-6.03;100.00;99082.16;5059257;28;20040;-59
2023/02/10 00:27:05;;;;;;;30.27;14.93;;;;;;;-6.18;100.00;99073.50;5053719;28;20040;-58
2023/02/10 00:29:32;;;;;;;33.70;15.90;;;;;;;-6.20;100.00;99078.03;5054200;28;20105;-59
2023/02/10 00:32:00;;;;;;;34.53;14.93;;;;;;;-6.06;100.00;99077.94;5056553;28;20147;-58
2023/02/10 00:34:27;;;;;;;30.23;16.17;;;;;;;-6.09;100.00;99080.78;5054220;28;20042;-59
2023/02/10 00:36:54;;;;;;;26.88;13.27;;;;;;;-5.80;100.00;99079.72;5055177;28;20102;-59
2023/02/10 00:39:20;;;;;;;27.40;14.60;;;;;;;-5.94;100.00;99094.69;5057770;28;20127;-58
2023/02/10 00:41:47;;;;;;;26.88;13.80;;;;;;;-5.68;100.00;99089.44;5057211;28;20064;-60
2023/02/10 00:44:13;;;;;;;25.67;13.05;;;;;;;-5.84;100.00;99091.44;5059174;28;20123;-60
2023/02/10 00:46:40;;;;;;;21.98;13.23;;;;;;;-5.71;100.00;99094.94;5052470;28;20056;-59
2023/02/10 00:49:06;;;;;;;27.20;13.75;;;;;;;-5.77;100.00;99096.22;5049781;28;20045;-60
2023/02/10 00:51:34;;;;;;;28.55;13.55;;;;;;;-5.90;100.00;99104.09;5057529;28;20072;-60
2023/02/10 00:54:01;;;;;;;32.95;17.00;;;;;;;-5.91;100.00;99107.69;5055419;28;20105;-60
2023/02/10 00:56:27;;;;;;;30.60;15.18;;;;;;;-6.07;100.00;99092.09;5059313;28;20499;-60
2023/02/10 00:58:56;;;;;;;26.40;14.07;;;;;;;-6.03;100.00;99095.34;5058794;28;20044;-58
2023/02/10 01:01:22;;;;;;;29.70;12.95;;;;;;;-6.02;100.00;99089.09;5062486;28;20124;-59
2023/02/10 01:03:49;;;;;;;34.33;15.85;;;;;;;-6.12;100.00;99082.78;5051605;28;20060;-59
2023/02/10 01:06:15;;;;;;;35.05;17.75;;;;;;;-6.06;100.00;99085.00;5055548;28;20545;-59
2023/02/10 01:08:42;;;;;;;28.15;15.18;;;;;;;-5.95;100.00;99084.25;5050949;28;20044;-57
2023/02/10 01:11:11;;;;;;;34.13;17.75;;;;;;;-5.84;100.00;99081.75;5056089;28;20106;-60
2023/02/10 01:13:39;;;;;;;28.55;15.13;;;;;;;-5.79;100.00;99092.00;5057222;28;20036;-58
2023/02/10 01:16:11;;;;;;;30.23;15.02;;;;;;;-5.71;100.00;99087.03;5054762;28;20044;-60
2023/02/10 01:18:38;;;;;;;30.08;15.18;;;;;;;-5.85;100.00;99092.38;5047305;28;20416;-59
2023/02/10 01:21:07;;;;;;;30.58;13.85;;;;;;;-5.96;100.00;99103.66;5057617;28;20408;-59
2023/02/10 01:23:34;;;;;;;25.67;13.23;;;;;;;-5.88;100.00;99115.41;5052889;28;20587;-59
2023/02/10 01:26:00;;;;;;;31.40;16.77;;;;;;;-6.01;100.00;99104.00;5059709;28;20059;-59
2023/02/10 01:28:27;;;;;;;30.63;13.88;;;;;;;-6.07;100.00;99099.16;5050182;28;20127;-60
2023/02/10 01:30:53;;;;;;;28.80;12.65;;;;;;;-5.96;100.00;99106.31;5057220;28;20095;-58
2023/02/10 01:33:20;;;;;;;25.45;13.43;;;;;;;-5.75;100.00;99107.50;5054292;28;20551;-58
2023/02/10 01:35:46;;;;;;;24.73;12.93;;;;;;;-5.61;100.00;99110.97;5060036;28;20032;-58
2023/02/10 01:38:13;;;;;;;34.20;15.10;;;;;;;-5.56;100.00;99110.66;5033909;28;20056;-59
2023/02/10 01:40:40;;;;;;;30.00;13.65;;;;;;;-5.58;99.46;99112.56;5055876;28;20045;-57
2023/02/10 01:43:14;;;;;;;23.95;11.70;;;;;;;-5.53;99.28;99105.19;5052937;28;20509;-58
2023/02/10 01:45:41;;;;;;;25.02;12.95;;;;;;;-5.42;98.64;99112.38;5056556;28;20113;-59
2023/02/10 01:48:09;;;;;;;26.25;13.85;;;;;;;-5.38;99.10;99111.19;5055844;28;20127;-58
2023/02/10 01:50:50;;;;;;;30.55;14.75;;;;;;;-5.76;100.00;99108.44;5054065;28;20040;-59
2023/02/10 01:53:18;;;;;;;29.23;14.70;;;;;;;-5.93;100.00;99114.84;5055407;28;20396;-59
2023/02/10 01:55:47;;;;;;;29.92;14.20;;;;;;;-5.81;100.00;99125.53;5059869;28;20127;-58
2023/02/10 01:58:18;;;;;;;26.40;13.18;;;;;;;-5.65;100.00;99120.91;5056520;28;20079;-57
2023/02/10 02:00:44;;;;;;;24.17;13.35;;;;;;;-5.58;100.00;99117.84;5054711;28;20478;-57
2023/02/10 02:03:12;;;;;;;26.38;14.10;;;;;;;-5.63;100.00;99123.44;5056392;28;20654;-59
2023/02/10 02:05:40;;;;;;;29.63;15.10;;;;;;;-5.77;100.00;99119.97;5058662;28;20056;-58
2023/02/10 02:08:12;;;;;;;32.30;15.63;;;;;;;-6.01;100.00;99117.19;5055505;28;20041;-58
2023/02/10 02:10:51;;;;;;;27.67;14.20;;;;;;;-5.75;100.00;99119.84;5051141;28;20723;-57
2023/02/10 02:13:47;;;;;;;30.65;15.38;;;;;;;-5.70;100.00;99117.75;5049049;28;20045;-57
2023/02/10 02:16:41;;;;;;;31.35;15.65;;;;;;;-5.79;100.00;99127.13;5053642;28;20043;-58
2023/02/10 02:19:23;;;;;;;26.00;14.40;;;;;;;-5.73;100.00;99128.50;5057290;28;20528;-59
2023/02/10 02:22:11;;;;;;;37.35;16.25;;;;;;;-5.85;100.00;99140.72;5048798;28;20054;-60
2023/02/10 02:25:19;;;;;;;27.50;13.75;;;;;;;-5.78;100.00;99138.53;5057370;28;20033;-59
2023/02/10 02:28:05;;;;;;;24.73;12.93;;;;;;;-5.92;100.00;99137.66;5053909;28;20033;-58
2023/02/10 02:31:03;;;;;;;29.35;14.38;;;;;;;-5.89;100.00;99144.53;5051886;28;20479;-57
2023/02/10 02:33:43;;;;;;;31.33;14.90;;;;;;;-5.97;100.00;99142.38;5049336;28;20707;-59
2023/02/10 02:36:15;;;;;;;25.77;14.20;;;;;;;-6.09;100.00;99136.16;5059201;28;20412;-59
2023/02/10 02:38:42;;;;;;;30.17;14.95;;;;;;;-6.20;100.00;99136.06;5051003;28;20514;-58
2023/02/10 02:41:10;;;;;;;31.13;16.05;;;;;;;-6.09;100.00;99133.53;5053864;28;20500;-59
2023/02/10 02:43:38;;;;;;;30.15;14.15;;;;;;;-6.12;100.00;99133.72;5046689;28;20087;-58
2023/02/10 02:46:18;;;;;;;31.13;15.07;;;;;;;-6.03;100.00;99137.56;5046858;28;20094;-59
2023/02/10 02:48:57;;;;;;;33.67;14.88;;;;;;;-5.94;100.00;99136.91;5053780;28;20450;-60
2023/02/10 02:51:39;;;;;;;30.05;14.00;;;;;;;-5.98;100.00;99132.78;5048566;28;20127;-58
2023/02/10 02:54:31;;;;;;;30.48;15.75;;;;;;;-5.90;100.00;99129.66;5057218;28;20060;-59
2023/02/10 02:57:11;;;;;;;;;;;;;;;-6.04;100.00;99125.31;5054496;28;20102;-59
2023/02/10 02:59:50;;;;;;;35.55;17.33;;;;;;;-6.01;100.00;99131.19;5053812;28;19925;-58
2023/02/10 03:02:20;;;;;;;30.27;15.70;;;;;;;-5.90;100.00;99130.47;5050315;28;20098;-58
2023/02/10 03:04:48;;;;;;;35.42;16.40;;;;;;;-5.85;100.00;99139.88;5053272;28;20649;-60
2023/02/10 03:07:15;;;;;;;33.03;15.45;;;;;;;-5.96;100.00;99140.59;5052096;28;20032;-59
2023/02/10 03:09:43;;;;;;;31.30;15.35;;;;;;;-6.05;100.00;99136.81;5047879;28;20079;-60
2023/02/10 03:12:12;;;;;;;28.23;14.18;;;;;;;-6.02;100.00;99134.78;5049200;28;20134;-59
2023/02/10 03:14:39;;;;;;;31.40;15.98;;;;;;;-6.09;100.00;99137.97;5053095;28;20543;-60
2023/02/10 03:17:05;;;;;;;35.33;17.27;;;;;;;-6.19;100.00;99138.56;5052343;28;20036;-59
2023/02/10 03:19:32;;;;;;;36.83;15.00;;;;;;;-6.30;100.00;99135.81;5052465;28;20097;-59
2023/02/10 03:21:58;;;;;;;32.50;16.15;;;;;;;-6.33;100.00;99143.91;5050043;28;20136;-59
2023/02/10 03:24:25;;;;;;;35.60;18.10;;;;;;;-6.42;100.00;99146.19;5050750;28;20051;-59
2023/02/10 03:26:51;;;;;;;34.25;17.55;;;;;;;-6.51;100.00;99143.28;5052410;28;20116;-60
2023/02/10 03:29:18;;;;;;;28.35;15.05;;;;;;;-6.51;100.00;99148.56;5052055;28;20632;-60
2023/02/10 03:31:44;;;;;;;27.00;13.70;;;;;;;-6.53;100.00;99152.16;5051180;28;20107;-60
2023/02/10 03:34:11;;;;;;;31.02;15.50;;;;;;;-6.44;100.00;99144.59;5053286;28;20587;-59
2023/02/10 03:36:37;;;;;;;33.13;15.55;;;;;;;-6.42;100.00;99148.81;5052659;28;20534;-59
2023/02/10 03:39:04;;;;;;;33.10;15.70;;;;;;;-6.34;100.00;99155.41;5049546;28;20041;-59
2023/02/10 03:41:31;;;;;;;32.28;14.70;;;;;;;-6.38;100.00;99156.53;5050490;28;20102;-59
2023/02/10 03:43:57;;;;;;;27.52;14.40;;;;;;;-6.38;100.00;99160.00;5051868;28;20091;-59
2023/02/10 03:46:24;;;;;;;32.17;16.05;;;;;;;-6.53;100.00;99160.06;5051477;28;20037;-60
2023/02/10 03:48:50;;;;;;;28.38;13.70;;;;;;;-6.57;100.00;99152.44;5050888;28;20087;-60
2023/02/10 03:51:17;;;;;;;29.83;15.15;;;;;;;-6.65;100.00;99147.66;5052551;28;20472;-60
2023/02/10 03:53:43;;;;;;;29.13;13.10;;;;;;;-6.55;100.00;99153.19;5054991;28;20709;-59
2023/02/10 03:56:10;;;;;;;32.05;15.98;;;;;;;-6.58;100.00;99158.66;5051420;28;20119;-59
2023/02/10 03:58:37;;;;;;;30.98;15.95;;;;;;;-6.44;100.00;99160.41;5049944;28;20102;-57
2023/02/10 04:01:16;;;;;;;25.63;13.45;;;;;;;-6.43;100.00;99164.72;5048586;28;20102;-58
2023/02/10 04:03:44;;;;;;;28.50;14.65;;;;;;;-6.37;100.00;99163.50;5044950;28;20048;-58
2023/02/10 04:06:11;;;;;;;31.20;12.52;;;;;;;-6.42;100.00;99166.41;5054789;28;20033;-60
2023/02/10 04:08:38;;;;;;;33.17;16.40;;;;;;;-6.50;100.00;99174.00;5053065;28;20729;-60
2023/02/10 04:11:06;;;;;;;29.48;14.30;;;;;;;-6.57;100.00;99169.09;5055658;28;20097;-57
2023/02/10 04:13:32;;;;;;;31.65;15.88;;;;;;;-6.67;100.00;99168.84;5047242;28;20041;-58
2023/02/10 04:16:07;;;;;;;29.13;14.45;;;;;;;-6.68;100.00;99167.16;5050215;28;20029;-57
2023/02/10 04:18:34;;;;;;;27.50;13.88;;;;;;;-6.70;100.00;99161.16;5050900;28;20079;-58
2023/02/10 04:21:03;;;;;;;30.58;14.13;;;;;;;-6.75;100.00;99168.47;5050733;28;20126;-59
2023/02/10 04:23:30;;;;;;;25.08;13.80;;;;;;;-6.76;100.00;99169.44;5055231;28;20094;-58
2023/02/10 04:25:57;;;;;;;31.77;16.35;;;;;;;-6.75;100.00;99167.66;5060449;28;20047;-56
2023/02/10 04:28:24;;;;;;;32.90;15.38;;;;;;;-6.80;100.00;99162.66;5054951;28;20080;-60
2023/02/10 04:30:54;;;;;;;37.38;16.75;;;;;;;-6.83;100.00;99170.75;5052226;28;20043;-59
2023/02/10 04:33:22;;;;;;;28.67;15.75;;;;;;;-6.84;100.00;99164.66;5054741;28;20110;-59
2023/02/10 04:35:49;;;;;;;28.98;15.70;;;;;;;-6.89;100.00;99173.78;5061114;28;20098;-59
2023/02/10 04:38:16;;;;;;;32.05;16.08;;;;;;;-6.88;100.00;99176.31;5054715;28;20068;-59
2023/02/10 04:40:43;;;;;;;24.50;13.63;;;;;;;-6.84;100.00;99174.31;5057108;28;20071;-59
2023/02/10 04:43:11;;;;;;;28.65;13.70;;;;;;;-6.84;100.00;99179.59;5051359;28;20096;-58
2023/02/10 04:45:38;;;;;;;30.75;16.23;;;;;;;-6.81;100.00;99174.97;5053555;28;20041;-59
2023/02/10 04:48:05;;;;;;;29.95;13.70;;;;;;;-6.77;100.00;99174.78;5050458;28;20135;-58
2023/02/10 04:50:32;;;;;;;35.05;16.30;;;;;;;-6.73;100.00;99176.28;5055701;28;20150;-58
2023/02/10 04:52:59;;;;;;;34.65;18.35;;;;;;;-6.73;100.00;99176.28;5058118;28;20047;-60
2023/02/10 04:55:25;;;;;;;34.75;16.92;;;;;;;-6.69;100.00;99169.88;5057165;28;20041;-59
2023/02/10 04:57:52;;;;;;;33.05;16.30;;;;;;;-6.69;100.00;99180.41;5054109;28;20041;-59
2023/02/10 05:00:18;;;;;;;32.35;16.00;;;;;;;-6.72;100.00;99181.47;5051044;28;20048;-58
2023/02/10 05:02:45;;;;;;;30.85;14.00;;;;;;;-6.75;100.00;99186.09;5056750;28;20045;-58
2023/02/10 05:05:12;;;;;;;32.55;16.95;;;;;;;-6.82;100.00;99180.38;5055917;28;20029;-57
2023/02/10 05:07:39;;;;;;;32.25;15.23;;;;;;;-6.88;100.00;99183.38;5057414;28;20829;-59
2023/02/10 05:10:05;;;;;;;27.98;15.63;;;;;;;-6.88;100.00;99189.50;5064302;28;20064;-57
2023/02/10 05:12:32;;;;;;;33.13;16.25;;;;;;;-6.93;100.00;99191.56;5064069;28;20036;-60
2023/02/10 05:14:59;;;;;;;27.65;14.35;;;;;;;-6.91;100.00;99194.94;5060167;28;20514;-59
2023/02/10 05:17:25;;;;;;;29.15;14.25;;;;;;;-6.94;100.00;99193.34;5058175;28;20112;-59
2023/02/10 05:19:52;;;;;;;34.58;16.55;;;;;;;-6.96;100.00;99197.84;5063269;28;20032;-59
2023/02/10 05:22:18;;;;;;;31.83;16.10;;;;;;;-7.03;100.00;99191.28;5063125;28;20056;-58
2023/02/10 05:24:44;;;;;;;30.73;14.50;;;;;;;-7.00;100.00;99196.38;5058233;28;20531;-59
2023/02/10 05:27:11;;;;;;;33.40;16.38;;;;;;;-7.01;100.00;99194.66;5062700;28;20064;-60
2023/02/10 05:29:37;;;;;;;33.53;16.75;;;;;;;-6.96;100.00;99189.94;5064862;28;20040;-59
2023/02/10 05:32:04;;;;;;;33.20;17.02;;;;;;;-6.89;100.00;99194.84;5062815;28;20071;-58
2023/02/10 05:34:31;;;;;;;42.78;19.30;;;;;;;-6.83;100.00;99203.22;5063590;28;20045;-59
2023/02/10 05:36:57;;;;;;;29.48;16.08;;;;;;;-6.84;100.00;99203.31;5059510;28;20055;-60
2023/02/10 05:39:24;;;;;;;30.98;17.42;;;;;;;-6.93;100.00;99197.66;5065362;28;20044;-59
2023/02/10 05:41:52;;;;;;;30.08;15.98;;;;;;;-7.00;100.00;99199.00;5061349;28;20775;-59
2023/02/10 05:44:18;;;;;;;27.15;13.38;;;;;;;-7.02;100.00;99207.91;5061212;28;20529;-59
2023/02/10 05:46:45;;;;;;;29.77;15.75;;;;;;;-6.99;100.00;99210.38;5060783;28;20064;-59
2023/02/10 05:49:12;;;;;;;33.78;15.18;;;;;;;-6.96;100.00;99208.38;5064264;28;20036;-58
2023/02/10 05:51:38;;;;;;;25.63;13.55;;;;;;;-6.96;100.00;99211.00;5063223;28;20157;-59
2023/02/10 05:54:04;;;;;;;33.63;16.30;;;;;;;-6.93;100.00;99208.19;5062755;28;20106;-58
2023/02/10 05:56:31;;;;;;;32.33;15.10;;;;;;;-6.93;100.00;99210.84;5060402;28;20103;-58
2023/02/10 05:58:58;;;;;;;39.60;19.23;;;;;;;-6.90;100.00;99212.44;5065983;28;20533;-59
2023/02/10 06:01:24;;;;;;;28.33;15.35;;;;;;;-6.94;100.00;99211.78;5072950;28;20056;-59
2023/02/10 06:03:51;;;;;;;30.17;14.95;;;;;;;-6.92;100.00;99215.16;5062504;28;20044;-58
2023/02/10 06:06:17;;;;;;;40.40;17.83;;;;;;;-6.96;100.00;99218.91;5059349;28;20061;-59
2023/02/10 06:08:44;;;;;;;34.90;17.27;;;;;;;-6.98;100.00;99225.22;5058781;28;20143;-59
2023/02/10 06:11:10;;;;;;;26.48;14.38;;;;;;;-6.99;100.00;99223.53;5055068;28;20044;-58
2023/02/10 06:13:37;;;;;;;32.80;14.18;;;;;;;-6.85;100.00;99241.13;5061915;28;20723;-59
2023/02/10 06:16:04;;;;;;;29.73;15.10;;;;;;;-6.68;100.00;99245.34;5059783;28;20128;-58
2023/02/10 06:18:31;;;;;;;29.67;14.10;;;;;;;-6.66;100.00;99249.59;5065154;28;20068;-60
2023/02/10 06:20:58;;;;;;;31.92;14.20;;;;;;;-6.63;100.00;99252.97;5063384;28;20044;-59
2023/02/10 06:23:25;;;;;;;31.00;13.65;;;;;;;-6.57;100.00;99252.56;5063970;28;20079;-60
2023/02/10 06:25:54;;;;;;;31.05;13.85;;;;;;;-6.72;100.00;99252.59;5062723;28;20060;-58
2023/02/10 06:28:22;;;;;;;30.58;14.70;;;;;;;-6.77;100.00;99259.94;5058626;28;20040;-58
2023/02/10 06:30:49;;;;;;;26.80;14.32;;;;;;;-6.59;100.00;99270.28;5064129;28;20037;-57
2023/02/10 06:33:16;;;;;;;34.40;15.25;;;;;;;-6.64;100.00;99264.47;5062452;28;20052;-57
2023/02/10 06:35:43;;;;;;;31.05;15.15;;;;;;;-6.57;100.00;99266.63;5060563;28;20614;-55
2023/02/10 06:38:10;;;;;;;36.28;14.90;;;;;;;-6.54;100.00;99265.56;5057843;28;20036;-55
2023/02/10 06:40:36;;;;;;;25.95;13.60;;;;;;;-6.44;100.00;99271.97;5054245;28;20068;-57
2023/02/10 06:43:03;;;;;;;31.67;14.30;;;;;;;-6.46;100.00;99268.59;5057950;28;20127;-57
2023/02/10 06:45:30;;;;;;;26.02;11.90;;;;;;;-6.36;100.00;99265.38;5057661;28;20860;-58
2023/02/10 06:47:56;;;;;;;29.02;13.60;;;;;;;-6.48;100.00;99270.47;5058929;28;20502;-58
2023/02/10 06:50:23;;;;;;;35.53;14.35;;;;;;;-6.56;100.00;99283.28;5053526;28;20055;-57
2023/02/10 06:52:49;;;;;;;30.55;13.32;;;;;;;-6.44;100.00;99281.66;5062755;28;20787;-58
2023/02/10 06:55:16;;;;;;;32.10;14.63;;;;;;;-6.30;100.00;99283.44;5061330;28;20072;-57
2023/02/10 06:57:43;;;;;;;30.80;14.07;;;;;;;-6.27;100.00;99280.59;5055622;28;20076;-56
2023/02/10 07:00:11;;;;;;;29.48;13.93;;;;;;;-6.31;100.00;99279.94;5061608;28;20050;-59
2023/02/10 07:02:38;;;;;;;29.27;14.48;;;;;;;-6.29;100.00;99279.84;5058448;28;20075;-58
2023/02/10 07:05:07;;;;;;;25.63;12.80;;;;;;;-6.15;100.00;99284.28;5061467;28;20075;-58
2023/02/10 07:07:38;;;;;;;24.98;13.00;;;;;;;-6.17;100.00;99275.59;5059994;28;20597;-57
2023/02/10 07:10:05;;;;;;;33.87;14.47;;;;;;;-6.34;99.99;99284.59;5059553;28;20507;-57
2023/02/10 07:12:31;;;;;;;25.88;13.27;;;;;;;-6.43;100.00;99284.22;5061771;28;20105;-58
2023/02/10 07:14:58;;;;;;;34.22;17.48;;;;;;;-6.67;100.00;99278.69;5058547;28;20055;-58
2023/02/10 07:17:24;;;;;;;31.70;15.57;;;;;;;-6.67;100.00;99287.41;5051061;28;20694;-58
2023/02/10 07:19:51;;;;;;;32.05;15.82;;;;;;;-6.68;100.00;99291.00;5030003;28;20049;-59
2023/02/10 07:22:17;;;;;;;25.77;14.02;;;;;;;-6.66;100.00;99285.63;5055454;28;20036;-58
2023/02/10 07:24:44;;;;;;;46.85;23.17;;;;;;;-6.76;100.00;99293.25;5059887;28;20618;-57
2023/02/10 07:27:10;;;;;;;45.67;22.83;;;;;;;-6.75;100.00;99291.47;5057569;28;20033;-58
2023/02/10 07:29:37;;;;;;;37.75;18.55;;;;;;;-6.75;100.00;99288.84;5059256;28;20131;-56
2023/02/10 07:32:04;;;;;;;44.53;23.38;;;;;;;-6.69;100.00;99293.72;5054468;28;20033;-58
2023/02/10 07:34:33;;;;;;;38.08;20.45;;;;;;;-6.68;100.00;99296.25;5057186;28;20049;-59
2023/02/10 07:37:00;;;;;;;43.22;19.75;;;;;;;-6.67;100.00;99302.41;5061548;28;20474;-58
2023/02/10 07:39:27;;;;;;;37.13;20.10;;;;;;;-6.63;100.00;99303.03;5062950;28;20139;-58
2023/02/10 07:41:53;;;;;;;37.67;19.67;;;;;;;-6.54;100.00;99302.47;5059989;28;20084;-58
2023/02/10 07:44:26;;;;;;;42.22;19.85;;;;;;;-6.45;100.00;99303.72;5052536;28;20568;-58
2023/02/10 07:46:52;;;;;;;29.63;16.50;;;;;;;-6.40;100.00;99301.63;5059932;28;20071;-57
2023/02/10 07:49:19;;;;;;;35.40;20.05;;;;;;;-6.35;100.00;99298.72;5054398;28;20041;-58
2023/02/10 07:51:46;;;;;;;37.88;18.85;;;;;;;-6.28;100.00;99287.69;5056675;28;20074;-59
2023/02/10 07:54:12;;;;;;;35.83;17.95;;;;;;;-6.17;100.00;99284.34;5060464;28;20046;-59
2023/02/10 07:56:38;;;;;;;34.38;18.65;;;;;;;-6.02;100.00;99282.50;5053088;28;20113;-58
2023/02/10 07:59:05;;;;;;;34.95;17.80;;;;;;;-5.90;100.00;99282.66;5060793;28;20151;-58
2023/02/10 08:01:37;;;;;;;32.50;16.73;;;;;;;-5.81;100.00;99291.75;5057855;28;20048;-59
2023/02/10 08:04:04;;;;;;;34.88;16.35;;;;;;;-5.77;100.00;99291.47;5059758;28;20118;-56
2023/02/10 08:06:30;;;;;;;30.90;17.77;;;;;;;-5.66;100.00;99287.28;5051236;28;20130;-59
2023/02/10 08:08:57;;;;;;;34.30;16.25;;;;;;;-5.58;100.00;99295.53;5060638;28;20045;-58
2023/02/10 08:11:23;;;;;;;37.40;19.90;;;;;;;-5.43;100.00;99293.69;5052748;28;20045;-59
2023/02/10 08:13:50;;;;;;;35.33;20.15;;;;;;;-5.30;100.00;99301.66;5060256;28;20523;-58
2023/02/10 08:16:16;;;;;;;35.20;17.65;;;;;;;-5.14;100.00;99297.97;5060977;28;20507;-59
2023/02/10 08:18:43;;;;;;;39.10;17.42;;;;;;;-5.12;100.00;99296.91;5050795;28;21230;-57
2023/02/10 08:21:10;;;;;;;38.17;17.42;;;;;;;-4.94;100.00;99311.63;5026162;28;20094;-57
2023/02/10 08:23:37;;;;;;;55.70;27.13;;;;;;;-4.79;100.00;99309.72;5041802;28;20495;-56
2023/02/10 08:26:11;;;;;;;34.83;18.00;;;;;;;-4.67;100.00;99306.25;5059098;28;20046;-58
2023/02/10 08:28:39;;;;;;;57.55;24.67;;;;;;;-4.54;99.97;99300.94;5062916;28;20055;-57
2023/02/10 08:31:08;;;;;;;48.83;23.00;;;;;;;-4.42;99.38;99311.63;5057847;28;20047;-57
2023/02/10 08:33:35;;;;;;;50.70;22.65;;;;;;;-4.27;98.92;99314.97;5057243;28;20048;-58
2023/02/10 08:36:14;;;;;;;33.22;16.30;;;;;;;-4.07;99.17;99310.91;5061206;28;20051;-56
2023/02/10 08:38:40;;;;;;;36.47;20.25;;;;;;;-3.93;96.99;99309.94;5057324;28;20110;-55
2023/02/10 08:41:07;;;;;;;40.67;18.63;;;;;;;-3.76;97.45;99310.50;5061126;28;20045;-57
2023/02/10 08:43:33;;;;;;;33.80;16.63;;;;;;;-3.66;96.12;99307.06;5060928;28;20090;-56
2023/02/10 08:46:01;;;;;;;31.13;15.40;;;;;;;-3.42;94.71;99310.69;5054202;28;20093;-55
2023/02/10 08:48:27;;;;;;;34.70;15.75;;;;;;;-3.19;92.85;99313.41;5059549;28;20044;-57
2023/02/10 08:50:54;;;;;;;37.80;17.80;;;;;;;-3.08;91.85;99300.19;5057474;28;20105;-58
2023/02/10 08:53:21;;;;;;;40.70;19.17;;;;;;;-2.90;90.81;99297.09;5059280;28;20119;-58
2023/02/10 08:55:58;;;;;;;28.05;13.80;;;;;;;-2.78;89.74;99296.16;5063223;28;20120;-56
2023/02/10 08:58:26;;;;;;;31.63;14.65;;;;;;;-2.65;87.90;99292.56;5057117;28;20447;-58
2023/02/10 09:00:53;;;;;;;27.30;13.43;;;;;;;-2.46;87.67;99288.47;5054552;28;20095;-57
2023/02/10 09:03:20;;;;;;;32.92;15.85;;;;;;;-2.14;84.86;99296.50;5057369;28;20052;-56
2023/02/10 09:05:48;;;;;;;34.60;17.13;;;;;;;-1.90;82.54;99294.66;5062265;28;20045;-57
2023/02/10 09:08:16;;;;;;;20.65;12.57;;;;;;;-1.73;81.55;99296.78;5060763;28;20052;-58
2023/02/10 09:10:44;;;;;;;25.38;13.05;;;;;;;-1.59;82.16;99305.44;5064196;28;20443;-56
2023/02/10 09:13:10;;;;;;;19.25;11.20;;;;;;;-1.40;79.75;99307.44;5061330;28;20044;-55
2023/02/10 09:15:38;;;;;;;30.33;14.45;;;;;;;-1.34;78.45;99306.09;5059804;28;20040;-58
2023/02/10 09:18:06;;;;;;;39.60;17.35;;;;;;;-1.24;78.72;99311.50;5063674;28;20176;-57
2023/02/10 09:20:33;;;;;;;27.35;13.50;;;;;;;-1.15;78.38;99312.56;5064508;28;20041;-56
2023/02/10 09:22:59;;;;;;;42.95;19.27;;;;;;;-1.07;77.78;99315.41;5064651;28;20569;-58
2023/02/10 09:25:26;;;;;;;30.55;15.40;;;;;;;-0.90;77.60;99316.63;5064187;28;20040;-58
2023/02/10 09:27:54;;;;;;;31.45;17.23;;;;;;;-0.79;77.12;99313.06;5064056;28;20036;-58
2023/02/10 09:30:21;;;;;;;29.17;16.83;;;;;;;-0.67;76.98;99312.03;5063701;28;20139;-56
2023/02/10 09:32:47;;;;;;;24.80;13.45;;;;;;;-0.61;75.74;99312.47;5038726;28;20055;-58
2023/02/10 09:35:14;;;;;;;28.17;14.57;;;;;;;-0.55;75.02;99314.63;5061326;28;20052;-55
2023/02/10 09:37:40;;;;;;;24.13;12.27;;;;;;;-0.47;75.19;99309.47;5058816;28;20108;-58
2023/02/10 09:40:13;;;;;;;31.40;13.07;;;;;;;-0.39;74.36;99308.81;5061267;28;20048;-53
2023/02/10 09:42:55;;;;;;;21.83;11.90;;;;;;;-0.28;74.11;99303.41;5061904;28;20090;-53
2023/02/10 09:45:29;;;;;;;26.70;13.77;;;;;;;-0.19;73.37;99307.06;5058244;28;20044;-54
2023/02/10 09:48:15;;;;;;;27.35;13.70;;;;;;;-0.04;71.76;99306.69;5060804;28;20048;-53
2023/02/10 09:50:55;;;;;;;22.42;11.75;;;;;;;0.09;70.82;99306.44;5060780;28;20052;-53
2023/02/10 09:53:25;;;;;;;24.92;12.07;;;;;;;0.14;69.91;99301.53;5061079;28;20044;-55
2023/02/10 09:55:58;;;;;;;21.73;11.40;;;;;;;0.25;70.37;99312.09;5063711;28;20051;-53
2023/02/10 09:58:31;;;;;;;26.13;13.07;;;;;;;0.29;69.14;99302.00;5060619;28;20048;-55
2023/02/10 10:01:14;;;;;;;24.08;11.75;;;;;;;0.47;67.98;99302.16;5063333;28;20649;-55
2023/02/10 10:03:57;;;;;;;24.40;12.05;;;;;;;0.62;66.04;99307.06;5064936;28;20059;-54
2023/02/10 10:06:32;;;;;;;22.42;12.05;;;;;;;0.83;66.91;99306.94;5063226;28;20472;-55
2023/02/10 10:09:11;;;;;;;23.10;11.25;;;;;;;0.89;63.87;99310.88;5061162;28;20041;-56
2023/02/10 10:11:40;;;;;;;23.25;11.40;;;;;;;0.94;64.01;99319.28;5057440;28;20044;-55
2023/02/10 10:14:35;;;;;;;23.80;12.07;;;;;;;1.03;62.57;99320.25;5061469;28;20720;-53
2023/02/10 10:17:12;;;;;;;24.40;11.52;;;;;;;1.11;62.92;99317.72;5061208;28;20052;-56
2023/02/10 10:19:51;;;;;;;25.50;12.82;;;;;;;1.19;62.85;99314.34;5066209;28;20088;-55
2023/02/10 10:22:53;;;;;;;27.65;11.65;;;;;;;1.27;62.39;99321.63;5061959;28;20068;-53
2023/02/10 10:25:36;;;;;;;21.88;10.88;;;;;;;1.35;62.30;99315.56;5061327;28;20405;-56
2023/02/10 10:28:21;;;;;;;23.30;11.77;;;;;;;1.46;62.53;99312.75;5059794;28;20043;-53
2023/02/10 10:30:57;;;;;;;17.95;10.02;;;;;;;1.53;62.12;99321.88;5060905;28;20050;-55
2023/02/10 10:33:48;;;;;;;20.73;10.48;;;;;;;1.61;61.55;99314.94;5062518;28;20040;-55
2023/02/10 10:36:18;;;;;;;25.63;12.20;;;;;;;1.61;61.69;99322.94;5062120;28;20082;-52
2023/02/10 10:38:52;;;;;;;25.40;11.48;;;;;;;1.65;62.06;99319.00;5060506;28;20046;-55
2023/02/10 10:41:25;;;;;;;24.52;11.20;;;;;;;1.75;62.12;99311.81;5057959;28;20053;-51
2023/02/10 10:43:53;;;;;;;19.63;10.50;;;;;;;1.77;61.79;99303.66;5053365;28;20047;-54
2023/02/10 10:46:33;;;;;;;22.85;10.73;;;;;;;1.84;60.89;99309.25;5059209;28;20130;-56
2023/02/10 10:49:00;;;;;;;17.05;9.65;;;;;;;1.98;58.68;99307.91;5063370;28;20128;-55
2023/02/10 10:51:27;;;;;;;19.90;10.23;;;;;;;1.99;58.87;99306.91;5062175;28;20052;-54
2023/02/10 10:53:56;;;;;;;21.02;11.13;;;;;;;2.07;58.71;99301.69;5058608;28;20070;-55
2023/02/10 10:56:43;;;;;;;21.50;11.98;;;;;;;1.98;58.21;99299.91;5060037;28;20044;-56
2023/02/10 10:59:17;;;;;;;26.98;11.60;;;;;;;2.02;58.78;99302.13;5058348;28;20068;-55
2023/02/10 11:01:46;;;;;;;19.38;10.32;;;;;;;2.14;58.97;99297.41;5059494;28;20037;-55
2023/02/10 11:04:18;;;;;;;18.55;10.50;;;;;;;2.18;59.11;99304.13;5061281;28;20075;-56
2023/02/10 11:06:49;;;;;;;22.35;10.68;;;;;;;2.32;58.50;99302.78;5056465;28;20098;-55
2023/02/10 11:09:40;;;;;;;21.90;11.25;;;;;;;2.37;57.51;99304.16;5063657;28;20063;-54
2023/02/10 11:12:16;;;;;;;20.65;10.15;;;;;;;2.44;57.22;99303.41;5061470;28;20094;-56
2023/02/10 11:14:45;;;;;;;19.50;9.90;;;;;;;2.45;57.69;99301.56;5060370;28;20052;-55
2023/02/10 11:17:34;;;;;;;20.67;10.63;;;;;;;2.56;56.26;99297.84;5062368;28;20045;-55
2023/02/10 11:20:21;;;;;;;22.08;10.30;;;;;;;2.54;56.11;99300.66;5055796;28;20044;-56
2023/02/10 11:22:57;;;;;;;21.13;10.00;;;;;;;2.64;55.66;99300.59;5056136;28;20119;-56